createdAt,value
2023-02-09T00:00:02.798Z,95.47
2023-02-09T00:02:42.837Z,94.91
2023-02-09T00:05:12.044Z,94.46
2023-02-09T00:07:40.153Z,93.84
2023-02-09T00:10:09.091Z,94.72
2023-02-09T00:12:55.512Z,94.23
2023-02-09T00:15:23.658Z,94.98
2023-02-09T00:17:53.192Z,95.11
2023-02-09T00:20:21.464Z,96.67
2023-02-09T00:22:49.567Z,96.95
2023-02-09T00:25:17.741Z,97.41
2023-02-09T00:27:45.881Z,97.36
2023-02-09T00:30:14.676Z,98.13
2023-02-09T00:32:45.269Z,98.45
2023-02-09T00:35:14.974Z,98.19
2023-02-09T00:37:43.134Z,98.17
2023-02-09T00:40:12.282Z,98.61
2023-02-09T00:42:40.355Z,98.93
2023-02-09T00:45:09.641Z,98.99
2023-02-09T00:47:37.720Z,98.38
2023-02-09T00:50:08.524Z,97.85
2023-02-09T00:52:38.087Z,97.99
2023-02-09T00:55:06.740Z,99.05
2023-02-09T00:57:36.170Z,99.24
2023-02-09T01:00:05.059Z,99.61
2023-02-09T01:02:39.452Z,100.00
2023-02-09T01:05:08.403Z,100.00
2023-02-09T01:07:38.426Z,100.00
2023-02-09T01:10:07.323Z,100.00
2023-02-09T01:12:35.452Z,100.00
2023-02-09T01:15:05.907Z,100.00
2023-02-09T01:17:34.102Z,100.00
2023-02-09T01:20:02.324Z,100.00
2023-02-09T01:22:30.457Z,100.00
2023-02-09T01:25:00.391Z,100.00
2023-02-09T01:27:28.801Z,100.00
2023-02-09T01:29:56.896Z,100.00
2023-02-09T01:32:25.213Z,100.00
2023-02-09T01:34:53.654Z,100.00
2023-02-09T01:37:22.615Z,100.00
2023-02-09T01:39:50.922Z,100.00
2023-02-09T01:42:21.935Z,100.00
2023-02-09T01:45:25.877Z,100.00
2023-02-09T01:47:59.651Z,100.00
2023-02-09T01:50:29.769Z,100.00
2023-02-09T01:52:58.247Z,100.00
2023-02-09T01:55:29.306Z,100.00
2023-02-09T01:58:02.642Z,100.00
2023-02-09T02:00:31.581Z,100.00
2023-02-09T02:03:04.817Z,100.00
2023-02-09T02:05:36.417Z,100.00
2023-02-09T02:08:07.276Z,100.00
2023-02-09T02:10:35.563Z,100.00
2023-02-09T02:13:05.210Z,100.00
2023-02-09T02:15:52.629Z,100.00
2023-02-09T02:18:45.238Z,100.00
2023-02-09T02:22:09.515Z,100.00
2023-02-09T02:25:17.099Z,100.00
2023-02-09T02:27:48.066Z,100.00
2023-02-09T02:30:39.053Z,100.00
2023-02-09T02:33:19.907Z,100.00
2023-02-09T02:35:54.041Z,100.00
2023-02-09T02:38:34.618Z,100.00
2023-02-09T02:41:12.178Z,100.00
2023-02-09T02:43:50.930Z,100.00
2023-02-09T02:46:26.258Z,100.00
2023-02-09T02:49:01.933Z,100.00
2023-02-09T02:51:34.199Z,100.00
2023-02-09T02:54:05.852Z,100.00
2023-02-09T02:56:38.311Z,100.00
2023-02-09T02:59:11.773Z,100.00
2023-02-09T03:01:43.884Z,100.00
2023-02-09T03:04:16.378Z,100.00
2023-02-09T03:06:44.536Z,100.00
2023-02-09T03:09:12.942Z,100.00
2023-02-09T03:11:45.121Z,100.00
2023-02-09T03:14:34.596Z,100.00
2023-02-09T03:17:14.846Z,100.00
2023-02-09T03:19:50.083Z,100.00
2023-02-09T03:22:28.220Z,100.00
2023-02-09T03:25:02.059Z,100.00
2023-02-09T03:27:34.545Z,100.00
2023-02-09T03:30:07.198Z,100.00
2023-02-09T03:32:39.110Z,100.00
2023-02-09T03:35:10.899Z,100.00
2023-02-09T03:37:39.087Z,100.00
2023-02-09T03:40:08.033Z,100.00
2023-02-09T03:42:36.218Z,100.00
2023-02-09T03:45:04.386Z,100.00
2023-02-09T03:47:32.426Z,100.00
2023-02-09T03:50:00.539Z,100.00
2023-02-09T03:52:31.044Z,100.00
2023-02-09T03:54:59.118Z,100.00
2023-02-09T03:57:27.233Z,100.00
2023-02-09T03:59:55.362Z,100.00
2023-02-09T04:02:23.430Z,100.00
2023-02-09T04:04:53.699Z,100.00
2023-02-09T04:07:21.844Z,100.00
2023-02-09T04:09:51.422Z,100.00
2023-02-09T04:12:19.491Z,100.00
2023-02-09T04:14:47.580Z,100.00
2023-02-09T04:17:15.715Z,100.00
2023-02-09T04:19:43.772Z,100.00
2023-02-09T04:22:11.921Z,100.00
2023-02-09T04:24:45.444Z,100.00
2023-02-09T04:27:14.937Z,100.00
2023-02-09T04:29:42.995Z,100.00
2023-02-09T04:32:11.199Z,100.00
2023-02-09T04:34:39.316Z,100.00
2023-02-09T04:37:07.434Z,100.00
2023-02-09T04:39:35.526Z,100.00
2023-02-09T04:42:03.683Z,100.00
2023-02-09T04:44:33.132Z,100.00
2023-02-09T04:47:01.256Z,100.00
2023-02-09T04:49:29.340Z,100.00
2023-02-09T04:51:57.464Z,100.00
2023-02-09T04:54:25.616Z,100.00
2023-02-09T04:57:13.701Z,100.00
2023-02-09T04:59:44.975Z,100.00
2023-02-09T05:02:13.389Z,100.00
2023-02-09T05:04:41.665Z,100.00
2023-02-09T05:07:09.790Z,100.00
2023-02-09T05:09:37.897Z,100.00
2023-02-09T05:12:06.249Z,100.00
2023-02-09T05:14:34.341Z,100.00
2023-02-09T05:17:03.914Z,100.00
2023-02-09T05:19:32.061Z,100.00
2023-02-09T05:22:00.147Z,100.00
2023-02-09T05:24:28.190Z,100.00
2023-02-09T05:26:56.304Z,100.00
2023-02-09T05:29:24.383Z,100.00
2023-02-09T05:31:52.514Z,100.00
2023-02-09T05:34:22.085Z,100.00
2023-02-09T05:36:50.192Z,100.00
2023-02-09T05:39:18.387Z,100.00
2023-02-09T05:42:15.192Z,100.00
2023-02-09T05:44:43.960Z,100.00
2023-02-09T05:47:12.138Z,100.00
2023-02-09T05:49:41.623Z,100.00
2023-02-09T05:52:10.590Z,100.00
2023-02-09T05:54:39.382Z,100.00
2023-02-09T05:57:08.084Z,100.00
2023-02-09T05:59:36.465Z,100.00
2023-02-09T06:02:04.667Z,100.00
2023-02-09T06:04:33.024Z,100.00
2023-02-09T06:07:02.553Z,100.00
2023-02-09T06:09:30.730Z,100.00
2023-02-09T06:11:58.875Z,100.00
2023-02-09T06:14:26.948Z,100.00
2023-02-09T06:16:55.101Z,100.00
2023-02-09T06:19:23.459Z,100.00
2023-02-09T06:21:51.616Z,100.00
2023-02-09T06:24:21.103Z,100.00
2023-02-09T06:26:49.246Z,100.00
2023-02-09T06:29:17.337Z,100.00
2023-02-09T06:31:45.579Z,100.00
2023-02-09T06:34:13.836Z,100.00
2023-02-09T06:36:41.931Z,100.00
2023-02-09T06:39:11.145Z,100.00
2023-02-09T06:41:40.729Z,100.00
2023-02-09T06:44:08.852Z,100.00
2023-02-09T06:46:36.938Z,100.00
2023-02-09T06:49:05.096Z,100.00
2023-02-09T06:51:33.598Z,100.00
2023-02-09T06:54:01.949Z,100.00
2023-02-09T06:56:30.076Z,100.00
2023-02-09T06:58:59.561Z,100.00
2023-02-09T07:01:27.735Z,100.00
2023-02-09T07:03:55.986Z,100.00
2023-02-09T07:06:24.135Z,100.00
2023-02-09T07:08:52.312Z,100.00
2023-02-09T07:11:20.924Z,100.00
2023-02-09T07:13:49.551Z,100.00
2023-02-09T07:16:19.182Z,100.00
2023-02-09T07:18:47.372Z,100.00
2023-02-09T07:21:18.734Z,100.00
2023-02-09T07:23:47.307Z,100.00
2023-02-09T07:26:18.017Z,100.00
2023-02-09T07:28:46.132Z,99.52
2023-02-09T07:31:16.555Z,97.40
2023-02-09T07:33:46.550Z,96.56
2023-02-09T07:36:16.521Z,94.47
2023-02-09T07:38:45.070Z,93.68
2023-02-09T07:41:16.781Z,91.99
2023-02-09T07:43:45.411Z,90.39
2023-02-09T07:46:16.538Z,89.43
2023-02-09T07:48:46.135Z,88.32
2023-02-09T07:51:15.173Z,87.06
2023-02-09T07:53:43.605Z,86.65
2023-02-09T07:56:11.799Z,85.36
2023-02-09T07:58:40.054Z,83.63
2023-02-09T08:01:11.456Z,82.79
2023-02-09T08:03:40.351Z,80.38
2023-02-09T08:06:19.624Z,79.03
2023-02-09T08:08:49.510Z,78.77
2023-02-09T08:11:21.341Z,77.20
2023-02-09T08:13:51.766Z,76.03
2023-02-09T08:16:22.456Z,75.85
2023-02-09T08:18:55.346Z,75.20
2023-02-09T08:21:25.952Z,74.33
2023-02-09T08:23:58.405Z,72.64
2023-02-09T08:26:26.832Z,71.70
2023-02-09T08:28:55.502Z,70.78
2023-02-09T08:31:23.825Z,70.59
2023-02-09T08:33:52.194Z,71.42
2023-02-09T08:36:21.852Z,73.41
2023-02-09T08:38:51.402Z,72.39
2023-02-09T08:41:20.473Z,69.68
2023-02-09T08:43:49.702Z,68.64
2023-02-09T08:46:17.908Z,68.01
2023-02-09T08:48:47.481Z,66.14
2023-02-09T08:51:17.737Z,66.35
2023-02-09T08:53:52.246Z,65.37
2023-02-09T08:56:23.808Z,64.44
2023-02-09T08:58:52.026Z,63.34
2023-02-09T09:01:22.090Z,62.01
2023-02-09T09:03:50.293Z,60.68
2023-02-09T09:06:18.476Z,59.53
2023-02-09T09:08:46.561Z,58.74
2023-02-09T09:11:14.994Z,58.41
2023-02-09T09:13:44.908Z,56.87
2023-02-09T09:16:17.322Z,54.91
2023-02-09T09:18:46.243Z,55.30
2023-02-09T09:21:16.045Z,55.93
2023-02-09T09:23:44.324Z,56.60
2023-02-09T09:26:12.637Z,56.43
2023-02-09T09:28:40.838Z,56.28
2023-02-09T09:31:12.515Z,53.34
2023-02-09T09:33:41.821Z,53.94
2023-02-09T09:36:10.668Z,53.42
2023-02-09T09:38:40.282Z,52.87
2023-02-09T09:41:19.974Z,51.28
2023-02-09T09:43:48.863Z,50.93
2023-02-09T09:46:21.897Z,49.72
2023-02-09T09:48:53.159Z,49.85
2023-02-09T09:51:27.602Z,49.51
2023-02-09T09:53:56.960Z,48.80
2023-02-09T09:56:27.140Z,48.37
2023-02-09T09:58:55.719Z,45.84
2023-02-09T10:01:28.734Z,45.36
2023-02-09T10:04:00.250Z,44.85
2023-02-09T10:06:33.841Z,42.79
2023-02-09T10:09:05.396Z,41.49
2023-02-09T10:11:40.387Z,40.37
2023-02-09T10:14:10.588Z,39.77
2023-02-09T10:16:46.308Z,38.75
2023-02-09T10:19:22.462Z,37.41
2023-02-09T10:21:50.921Z,40.07
2023-02-09T10:24:23.997Z,38.52
2023-02-09T10:27:08.809Z,38.20
2023-02-09T10:29:37.681Z,38.13
2023-02-09T10:32:15.652Z,37.51
2023-02-09T10:34:47.972Z,34.91
2023-02-09T10:37:25.506Z,36.00
2023-02-09T10:40:03.079Z,36.30
2023-02-09T10:42:34.016Z,35.50
2023-02-09T10:45:08.719Z,35.55
2023-02-09T10:47:38.216Z,34.90
2023-02-09T10:50:17.246Z,35.55
2023-02-09T10:52:56.520Z,34.28
2023-02-09T10:55:28.626Z,33.92
2023-02-09T10:58:12.788Z,36.73
2023-02-09T11:00:50.476Z,39.33
2023-02-09T11:03:22.560Z,35.50
2023-02-09T11:06:00.777Z,40.05
2023-02-09T11:08:39.185Z,37.09
2023-02-09T11:11:14.546Z,33.61
2023-02-09T11:13:43.424Z,33.40
2023-02-09T11:16:41.529Z,33.11
2023-02-09T11:19:22.869Z,32.68
2023-02-09T11:22:00.810Z,32.80
2023-02-09T11:24:46.341Z,33.84
2023-02-09T11:27:29.767Z,34.80
2023-02-09T11:30:13.965Z,39.15
2023-02-09T11:32:49.531Z,33.20
2023-02-09T11:35:23.536Z,32.79
2023-02-09T11:37:57.594Z,32.49
2023-02-09T11:40:32.682Z,30.96
2023-02-09T11:43:11.726Z,33.49
2023-02-09T11:45:45.172Z,31.88
2023-02-09T11:48:20.782Z,30.77
2023-02-09T11:50:59.055Z,32.14
2023-02-09T11:53:35.002Z,31.02
2023-02-09T11:56:05.486Z,31.11
2023-02-09T11:58:46.918Z,32.54
2023-02-09T12:01:23.472Z,32.32
2023-02-09T12:04:06.676Z,32.75
2023-02-09T12:06:40.956Z,31.85
2023-02-09T12:09:27.650Z,30.39
2023-02-09T12:12:06.846Z,31.29
2023-02-09T12:14:56.630Z,31.72
2023-02-09T12:17:32.476Z,31.67
2023-02-09T12:20:02.732Z,31.04
2023-02-09T12:23:04.543Z,32.27
2023-02-09T12:25:37.967Z,33.20
2023-02-09T12:28:18.437Z,32.26
2023-02-09T12:31:07.232Z,30.61
2023-02-09T12:33:37.878Z,30.63
2023-02-09T12:36:28.492Z,32.14
2023-02-09T12:39:23.911Z,33.08
2023-02-09T12:42:30.219Z,34.25
2023-02-09T12:45:00.701Z,32.39
2023-02-09T12:47:58.643Z,31.24
2023-02-09T12:50:45.939Z,32.03
2023-02-09T12:53:46.030Z,32.59
2023-02-09T12:56:34.234Z,32.15
2023-02-09T12:59:24.343Z,32.33
2023-02-09T13:02:15.986Z,32.93
2023-02-09T13:04:55.002Z,32.09
2023-02-09T13:07:30.607Z,32.10
2023-02-09T13:10:01.835Z,32.66
2023-02-09T13:12:39.190Z,32.71
2023-02-09T13:15:14.059Z,33.22
2023-02-09T13:17:50.977Z,32.12
2023-02-09T13:20:57.023Z,34.27
2023-02-09T13:23:34.622Z,34.65
2023-02-09T13:26:16.828Z,35.78
2023-02-09T13:28:46.658Z,33.95
2023-02-09T13:31:26.024Z,33.75
2023-02-09T13:34:00.611Z,34.44
2023-02-09T13:36:39.129Z,33.95
2023-02-09T13:39:22.366Z,33.28
2023-02-09T13:41:53.762Z,32.84
2023-02-09T13:44:27.022Z,33.78
2023-02-09T13:46:58.007Z,34.40
2023-02-09T13:49:28.253Z,33.38
2023-02-09T13:52:17.195Z,34.79
2023-02-09T13:54:45.813Z,34.49
2023-02-09T13:57:29.753Z,36.15
2023-02-09T14:00:08.256Z,35.67
2023-02-09T14:02:50.304Z,34.29
2023-02-09T14:05:30.071Z,35.43
2023-02-09T14:07:58.704Z,36.66
2023-02-09T14:10:29.009Z,36.84
2023-02-09T14:13:01.984Z,36.78
2023-02-09T14:15:57.512Z,35.51
2023-02-09T14:18:34.261Z,35.75
2023-02-09T14:21:04.726Z,36.18
2023-02-09T14:23:35.347Z,35.25
2023-02-09T14:26:06.119Z,35.92
2023-02-09T14:28:36.184Z,35.44
2023-02-09T14:31:07.377Z,36.17
2023-02-09T14:33:38.703Z,37.37
2023-02-09T14:36:07.743Z,36.90
2023-02-09T14:38:38.737Z,37.54
2023-02-09T14:41:27.987Z,38.03
2023-02-09T14:44:01.522Z,37.60
2023-02-09T14:46:48.675Z,38.15
2023-02-09T14:49:17.426Z,38.72
2023-02-09T14:51:46.335Z,38.29
2023-02-09T14:54:25.758Z,38.23
2023-02-09T14:56:56.472Z,37.23
2023-02-09T14:59:26.022Z,39.78
2023-02-09T15:01:56.120Z,38.87
2023-02-09T15:04:24.286Z,38.75
2023-02-09T15:07:01.532Z,39.64
2023-02-09T15:09:36.008Z,41.05
2023-02-09T15:12:07.548Z,40.49
2023-02-09T15:14:42.575Z,40.31
2023-02-09T15:17:18.147Z,40.57
2023-02-09T15:19:47.105Z,40.48
2023-02-09T15:22:17.321Z,40.84
2023-02-09T15:24:47.643Z,41.89
2023-02-09T15:27:27.892Z,43.43
2023-02-09T15:30:00.162Z,43.04
2023-02-09T15:32:30.120Z,42.99
2023-02-09T15:34:58.634Z,43.32
2023-02-09T15:37:29.365Z,43.51
2023-02-09T15:40:01.219Z,45.13
2023-02-09T15:42:46.708Z,47.89
2023-02-09T15:45:34.548Z,56.76
2023-02-09T15:48:05.143Z,61.27
2023-02-09T15:50:36.305Z,65.29
2023-02-09T15:53:09.400Z,59.71
2023-02-09T15:55:38.468Z,58.62
2023-02-09T15:58:14.678Z,54.34
2023-02-09T16:00:43.521Z,49.25
2023-02-09T16:03:16.531Z,54.57
2023-02-09T16:05:45.514Z,54.92
2023-02-09T16:08:19.037Z,55.48
2023-02-09T16:10:48.643Z,55.20
2023-02-09T16:13:19.275Z,53.07
2023-02-09T16:15:51.603Z,56.16
2023-02-09T16:18:21.753Z,54.13
2023-02-09T16:20:53.692Z,53.53
2023-02-09T16:23:24.176Z,51.05
2023-02-09T16:25:55.570Z,52.58
2023-02-09T16:28:24.655Z,52.69
2023-02-09T16:30:55.286Z,54.20
2023-02-09T16:33:26.854Z,49.97
2023-02-09T16:35:58.078Z,53.52
2023-02-09T16:38:27.365Z,56.53
2023-02-09T16:40:57.090Z,58.32
2023-02-09T16:43:26.708Z,59.36
2023-02-09T16:46:03.285Z,59.58
2023-02-09T16:48:35.840Z,60.65
2023-02-09T16:51:04.487Z,61.59
2023-02-09T16:53:37.284Z,62.37
2023-02-09T16:56:11.077Z,63.41
2023-02-09T16:58:41.531Z,63.82
2023-02-09T17:01:18.589Z,66.02
2023-02-09T17:03:50.847Z,66.43
2023-02-09T17:06:21.889Z,66.33
2023-02-09T17:08:51.667Z,67.13
2023-02-09T17:11:22.369Z,67.35
2023-02-09T17:13:51.895Z,67.92
2023-02-09T17:16:23.053Z,68.71
2023-02-09T17:18:56.629Z,68.24
2023-02-09T17:21:27.804Z,69.17
2023-02-09T17:23:58.016Z,68.97
2023-02-09T17:26:27.637Z,70.40
2023-02-09T17:28:57.018Z,70.32
2023-02-09T17:31:28.966Z,70.77
2023-02-09T17:34:01.233Z,70.05
2023-02-09T17:36:31.974Z,71.70
2023-02-09T17:39:03.291Z,72.59
2023-02-09T17:41:37.257Z,72.50
2023-02-09T17:44:28.610Z,72.71
2023-02-09T17:47:07.821Z,74.03
2023-02-09T17:49:38.512Z,75.26
2023-02-09T17:52:08.611Z,75.52
2023-02-09T17:54:38.857Z,75.63
2023-02-09T17:57:08.810Z,75.52
2023-02-09T17:59:41.954Z,76.98
2023-02-09T18:02:17.119Z,76.89
2023-02-09T18:04:48.901Z,77.13
2023-02-09T18:07:21.384Z,76.99
2023-02-09T18:09:52.640Z,76.70
2023-02-09T18:12:28.300Z,77.12
2023-02-09T18:14:57.728Z,77.93
2023-02-09T18:17:27.444Z,78.49
2023-02-09T18:19:58.789Z,78.48
2023-02-09T18:22:30.763Z,78.50
2023-02-09T18:25:14.856Z,78.93
2023-02-09T18:27:47.841Z,79.37
2023-02-09T18:30:17.610Z,79.42
2023-02-09T18:32:48.938Z,79.31
2023-02-09T18:35:25.304Z,80.36
2023-02-09T18:37:54.638Z,80.68
2023-02-09T18:40:24.869Z,81.90
2023-02-09T18:42:54.542Z,81.32
2023-02-09T18:45:25.594Z,80.45
2023-02-09T18:47:56.377Z,80.24
2023-02-09T18:50:30.632Z,80.71
2023-02-09T18:53:02.107Z,80.90
2023-02-09T18:55:36.438Z,81.19
2023-02-09T18:58:09.804Z,81.84
2023-02-09T19:00:41.208Z,81.84
2023-02-09T19:03:12.097Z,82.62
2023-02-09T19:05:44.079Z,83.17
2023-02-09T19:08:18.110Z,82.25
2023-02-09T19:10:49.584Z,82.16
2023-02-09T19:13:19.480Z,83.08
2023-02-09T19:15:50.304Z,82.76
2023-02-09T19:18:20.701Z,83.33
2023-02-09T19:20:56.065Z,84.60
2023-02-09T19:23:32.031Z,84.40
2023-02-09T19:26:06.484Z,84.23
2023-02-09T19:28:37.403Z,84.95
2023-02-09T19:31:16.482Z,85.04
2023-02-09T19:33:48.310Z,85.14
2023-02-09T19:36:23.257Z,85.86
2023-02-09T19:38:54.772Z,85.06
2023-02-09T19:41:26.165Z,85.72
2023-02-09T19:43:57.238Z,85.65
2023-02-09T19:46:37.298Z,86.45
2023-02-09T19:49:09.310Z,87.01
2023-02-09T19:51:42.679Z,86.70
2023-02-09T19:54:19.643Z,87.45
2023-02-09T19:56:48.866Z,87.64
2023-02-09T19:59:20.383Z,88.03
2023-02-09T20:01:52.660Z,88.05
2023-02-09T20:04:22.912Z,88.41
2023-02-09T20:06:54.824Z,88.50
2023-02-09T20:09:25.466Z,88.25
2023-02-09T20:11:58.687Z,88.48
2023-02-09T20:14:31.757Z,88.86
2023-02-09T20:17:03.416Z,88.35
2023-02-09T20:19:37.062Z,89.01
2023-02-09T20:22:10.596Z,88.76
2023-02-09T20:24:41.533Z,89.05
2023-02-09T20:27:12.351Z,90.09
2023-02-09T20:29:43.525Z,90.35
2023-02-09T20:32:15.005Z,90.29
2023-02-09T20:34:44.394Z,90.31
2023-02-09T20:37:15.737Z,90.64
2023-02-09T20:39:45.422Z,90.38
2023-02-09T20:42:32.768Z,91.16
2023-02-09T20:45:18.951Z,90.54
2023-02-09T20:47:49.101Z,91.05
2023-02-09T20:50:20.751Z,90.95
2023-02-09T20:52:52.327Z,90.78
2023-02-09T20:55:23.174Z,90.86
2023-02-09T20:57:52.581Z,91.37
2023-02-09T21:00:23.039Z,91.02
2023-02-09T21:02:56.462Z,91.46
2023-02-09T21:05:25.441Z,91.39
2023-02-09T21:07:58.154Z,92.34
2023-02-09T21:10:28.048Z,92.88
2023-02-09T21:12:59.399Z,92.42
2023-02-09T21:15:33.316Z,93.26
2023-02-09T21:18:10.037Z,93.21
2023-02-09T21:20:42.817Z,92.72
2023-02-09T21:23:13.919Z,92.47
2023-02-09T21:25:44.320Z,92.25
2023-02-09T21:28:13.554Z,93.65
2023-02-09T21:30:44.753Z,93.83
2023-02-09T21:33:13.383Z,93.63
2023-02-09T21:35:42.101Z,93.77
2023-02-09T21:38:10.763Z,93.89
2023-02-09T21:40:40.628Z,94.04
2023-02-09T21:43:09.141Z,94.27
2023-02-09T21:45:41.513Z,94.29
2023-02-09T21:48:09.859Z,94.51
2023-02-09T21:50:38.080Z,94.18
2023-02-09T21:53:06.341Z,93.80
2023-02-09T21:55:35.045Z,93.80
2023-02-09T21:58:04.611Z,94.52
2023-02-09T22:00:32.970Z,95.20
2023-02-09T22:30:05.847Z,97.51
2023-02-09T22:32:34.038Z,97.79
2023-02-09T22:35:02.182Z,97.41
2023-02-09T22:37:30.445Z,97.95
2023-02-09T22:39:58.888Z,98.15
2023-02-09T22:42:27.096Z,97.65
2023-02-09T22:44:55.213Z,97.95
2023-02-09T22:47:24.721Z,98.11
2023-02-09T22:49:52.967Z,98.52
2023-02-09T22:52:21.068Z,98.21
2023-02-09T22:54:49.193Z,98.33
2023-02-09T22:57:17.342Z,98.65
2023-02-09T22:59:45.510Z,98.55
2023-02-09T23:02:13.643Z,98.29
2023-02-09T23:04:43.276Z,98.51
2023-02-09T23:07:11.551Z,99.21
2023-02-09T23:09:39.772Z,99.02
2023-02-09T23:12:08.115Z,99.50
2023-02-09T23:14:36.443Z,100.00
2023-02-09T23:17:04.641Z,100.00
2023-02-09T23:19:32.806Z,100.00
2023-02-09T23:22:02.307Z,100.00
2023-02-09T23:24:30.504Z,99.65
2023-02-09T23:26:58.933Z,100.00
2023-02-09T23:29:28.112Z,100.00
2023-02-09T23:31:56.287Z,99.63
2023-02-09T23:34:24.540Z,100.00
2023-02-09T23:36:52.760Z,100.00
2023-02-09T23:39:23.670Z,100.00
2023-02-09T23:41:51.907Z,100.00
2023-02-09T23:44:20.546Z,100.00
2023-02-09T23:46:48.883Z,100.00
2023-02-09T23:49:17.015Z,100.00
2023-02-09T23:51:45.725Z,100.00
2023-02-09T23:54:13.945Z,100.00
2023-02-09T23:56:45.546Z,100.00
2023-02-09T23:59:16.392Z,100.00
